Latest Coastal Weather Observations for Eucla

IDS60701

Issued at 12:15 pm CST Wednesday 3 September 2014 (issued every 10 minutes, with the page automatically refreshed every 10 minutes)

About coastal observations | Map of coastal stations | Coastal observations for SA | Marine services | Other Formats
Station Details ID: 011003 Name: EUCLA Lat: -31.68 Lon: 128.90 Height: 93.1 m
Data from the previous 72 hours. | See also: Recent months at Eucla
Date/Time
CST
Temp

°C
Wind Pressure Rain
since 9am
mm
Weather Cloud Vis
km
Sea
Height
m
Swell
Dir
 
Speed
knots
Gust
knots
hPa Trend Height
m
Period
s
Dir
03/12:00pm 19.5 N 3 5 1016.7 - 0.0 - - - - - - -
03/11:30am 19.5 NNE 3 6 1017.3 - 0.0 - - - - - - -
03/11:00am 16.6 W 1 4 1018.1 - 0.0 - - - - - - -
03/10:30am 15.3 W 1 4 1018.5 - 0.0 Fine Cloudy 40 - - - -
03/10:00am 14.7 N 8 13 1018.3 - 0.0 - - - - - - -
03/09:30am 13.9 N 11 16 1017.9 - 0.0 - - - - - - -
03/09:00am 12.8 N 12 16 1017.9 - 0.0 - - - - - - -
03/08:30am 12.1 N 11 15 1017.9 - 0.0 - - - - - - -
03/08:00am 12.0 N 10 14 1017.8 - 0.0 - - - - - - -
03/07:30am 11.7 N 11 14 1017.4 - 0.0 - - - - - - -
03/07:00am 11.4 N 12 16 1017.0 - 0.0 - - - - - - -
03/06:30am 11.1 N 12 16 1016.9 - 0.0 - - - - - - -
03/06:00am 11.4 N 12 16 1017.6 - 0.0 - - - - - - -
03/05:30am 11.3 NNE 12 17 1017.1 - 0.0 - - - - - - -
03/05:00am 11.1 NNE 11 16 1017.7 - 0.0 - - - - - - -
03/04:30am 11.2 NNE 9 14 1018.5 - 0.0 - - - - - - -
03/04:00am 11.3 NNE 9 17 1018.5 - 0.0 - - - - - - -
03/03:30am 11.4 NNE 11 17 1019.2 - 0.0 - - - - - - -
03/03:00am 11.2 NNE 9 16 1019.6 - 0.0 - - - - - - -
03/02:30am 11.1 NNE 10 16 1019.7 - 0.0 - - - - - - -
03/02:00am 10.7 NE 8 12 1020.5 - 0.0 - - - - - - -
03/01:30am 10.6 NE 6 9 1021.5 - 0.0 - - - - - - -
03/01:00am 10.7 NNE 6 8 1021.9 - 0.0 - - - - - - -
03/12:30am 10.9 NNE 7 11 1022.0 - 0.0 - - - - - - -
03/12:00am 11.3 NE 7 11 1021.7 - 0.0 - - - - - - -
 
Date/Time
CST
Temp

°C
Wind Pressure Rain
since 9am
mm
Weather Cloud Vis
km
Sea
Height
m
Swell
Dir
 
Speed
knots
Gust
knots
hPa Trend Height
m
Period
s
Dir
02/11:30pm 11.7 NE 7 10 1022.3 - 0.0 - - - - - - -
02/11:00pm 12.0 NE 8 11 1022.2 - 0.0 - - - - - - -
02/10:30pm 12.3 NE 9 13 1022.6 - 0.0 - - - - - - -
02/10:00pm 12.5 ENE 8 13 1023.2 - 0.0 - - - - - - -
02/09:30pm 12.6 ENE 9 14 1023.5 - 0.0 - - - - - - -
02/09:00pm 13.0 E 9 14 1024.1 - 0.0 - - - - - - -
02/08:30pm 13.0 E 8 14 1024.5 - 0.0 - - - - - - -
02/08:00pm 13.1 E 9 14 1024.4 - 0.0 - - - - - - -
02/07:30pm 13.2 E 9 15 1024.2 - 0.0 - - - - - - -
02/07:00pm 13.3 E 10 15 1024.2 - 0.0 - - - - - - -
02/06:30pm 13.4 E 10 15 1024.1 - 0.0 - - - - - - -
02/06:00pm 13.9 E 10 16 1024.0 - 0.0 - - - - - - -
02/05:30pm 13.9 E 13 20 1023.3 - 0.0 - - - - - - -
02/05:00pm 14.2 E 13 19 1023.6 - 0.0 - - - - - - -
02/04:30pm 14.8 E 11 17 1023.8 - 0.0 Haze Cloudy 20 - - - -
02/04:00pm 15.2 E 12 19 1023.9 - 0.0 - - - - - - -
02/03:30pm 15.6 ESE 14 20 1023.9 - 0.0 - - - - - - -
02/03:00pm 16.0 ESE 14 19 1024.2 - 0.0 - - - - - - -
02/02:30pm 15.8 ESE 13 20 1024.4 - 0.0 - - - - - - -
02/02:00pm 16.1 ESE 11 18 1024.7 - 0.0 - - - - - - -
02/01:30pm 17.6 ENE 8 14 1025.4 - 0.0 - - - - - - -
02/01:00pm 18.1 NNE 8 17 1026.0 - 0.0 - - - - - - -
02/12:30pm 17.2 NE 9 16 1026.6 - 0.0 - - - - - - -
02/12:00pm 16.8 NNE 10 16 1027.0 - 0.0 - - - - - - -
02/11:30am 16.1 NE 9 15 1027.7 - 0.0 - - - - - - -
02/11:00am 15.5 ENE 8 14 1028.2 - 0.0 - - - - - - -
02/10:30am 15.1 NE 9 15 1028.3 - 0.2 Fine Mostly cloudy 40 - - - -
02/10:00am 15.1 NE 9 15 1028.7 - 0.2 - - - - - - -
02/09:30am 13.5 NE 7 9 1028.9 - 0.2 - - - - - - -
02/09:00am 12.9 NE 4 6 1028.8 - 0.2 - - - - - - -
02/08:30am 11.5 NE 4 6 1028.5 - 0.2 - - - - - - -
02/08:00am 8.8 NE 6 6 1028.4 - 0.2 - - - - - - -
02/07:30am 7.0 NE 6 7 1028.3 - 0.2 - - - - - - -
02/07:00am 6.9 NE 6 7 1028.1 - 0.2 - - - - - - -
02/06:30am 7.0 NNE 6 6 1027.9 - 0.2 - - - - - - -
02/06:00am 7.7 N 5 5 1028.1 - 0.2 - - - - - - -
02/05:30am 7.6 N 5 5 1027.9 - 0.2 - - - - - - -
02/05:00am 8.4 ENE 5 5 1027.8 - 0.2 - - - - - - -
02/04:30am 9.0 NE 4 5 1027.7 - 0.2 - - - - - - -
02/04:00am 9.4 ENE 5 6 1027.4 - 0.2 - - - - - - -
02/03:30am 9.2 ENE 3 5 1027.7 - 0.2 - - - - - - -
02/03:00am 9.4 ENE 1 4 1027.4 - 0.2 - - - - - - -
02/02:30am 10.2 ESE 5 9 1027.7 - 0.2 - - - - - - -
02/02:00am 8.2 ESE 5 6 1027.8 - 0.2 - - - - - - -
02/01:30am 8.5 E 5 7 1028.2 - 0.2 - - - - - - -
02/01:00am 8.9 E 5 6 1028.3 - 0.2 - - - - - - -
02/12:30am 10.2 SE 5 8 1028.3 - 0.2 - - - - - - -
02/12:00am 10.4 SE 5 7 1028.5 - 0.2 - - - - - - -
 
Date/Time
CST
Temp

°C
Wind Pressure Rain
since 9am
mm
Weather Cloud Vis
km
Sea
Height
m
Swell
Dir
 
Speed
knots
Gust
knots
hPa Trend Height
m
Period
s
Dir
01/11:30pm 11.0 SSE 6 8 1028.2 - 0.2 - - - - - - -
01/11:00pm 11.0 SE 3 7 1027.9 - 0.2 - - - - - - -
01/10:30pm 11.0 SSE 5 7 1028.2 - 0.2 - - - - - - -
01/10:00pm 11.2 SSE 6 9 1027.9 - 0.2 - - - - - - -
01/09:30pm 12.0 SSE 8 12 1027.7 - 0.2 - - - - - - -
01/09:00pm 11.7 S 6 9 1027.5 - 0.2 - - - - - - -
01/08:30pm 11.5 SSE 5 6 1027.1 - 0.2 - - - - - - -
01/08:00pm 11.8 S 5 7 1027.1 - 0.2 - - - - - - -
01/07:30pm 11.6 S 5 9 1026.5 - 0.2 - - - - - - -
01/07:00pm 12.2 S 6 11 1025.9 - 0.2 - - - - - - -
01/06:30pm 12.1 S 7 10 1025.9 - 0.2 - - - - - - -
01/06:00pm 12.9 S 9 13 1025.4 - 0.2 - - - - - - -
01/05:30pm 13.4 S 9 15 1025.1 - 0.2 - - - - - - -
01/05:00pm 13.5 S 10 15 1025.0 - 0.2 - - - - - - -
01/04:30pm 14.3 S 12 17 1024.6 - 0.2 Fine Partly cloudy 40 - - - -
01/04:00pm 14.6 S 11 17 1024.4 - 0.2 - - - - - - -
01/03:30pm 15.2 SSW 11 18 1024.0 - 0.2 - - - - - - -
01/03:00pm 16.1 S 11 17 1023.6 - 0.2 - - - - - - -
01/02:30pm 14.7 S 11 16 1023.6 - 0.2 - - - - - - -
01/02:00pm 15.7 S 13 19 1023.9 - 0.2 - - - - - - -
01/01:30pm 15.9 SSW 12 18 1023.9 - 0.2 - - - - - - -
01/01:00pm 16.4 S 13 18 1024.0 - 0.2 - - - - - - -
01/12:30pm 16.4 S 13 19 1023.9 - 0.2 - - - - - - -
01/12:00pm 15.2 SSW 13 19 1023.9 - 0.2 - - - - - - -
01/11:30am 16.2 S 13 21 1023.6 - 0.0 - - - - - - -
01/11:00am 15.9 SSW 13 19 1023.1 - 0.0 - - - - - - -
01/10:30am 15.2 SSW 10 18 1022.7 - 2.6 Fine Partly cloudy 40 - - - -
01/10:00am 14.5 SSW 10 17 1022.6 - 2.6 - - - - - - -
01/09:30am 14.8 SSW 11 17 1022.3 - 2.6 - - - - - - -
01/09:00am 14.3 SSW 10 16 1022.0 - 2.6 - - - - - - -
01/08:30am 13.0 SW 6 9 1021.3 - 2.6 - - - - - - -
01/08:00am 12.2 SW 6 8 1021.0 - 2.6 - - - - - - -
01/07:30am 12.1 WSW 6 9 1020.6 - 2.6 - - - - - - -
01/07:00am 12.1 WSW 6 8 1020.3 - 2.6 - - - - - - -
01/06:30am 12.1 WSW 5 7 1019.7 - 2.6 - - - - - - -
01/06:00am 12.5 WSW 6 9 1019.5 - 2.6 - - - - - - -
01/05:30am 12.7 WSW 5 8 1018.9 - 2.6 - - - - - - -
01/05:00am 12.8 WSW 6 8 1018.8 - 2.6 - - - - - - -
01/04:30am 13.0 SW 7 10 1018.5 - 2.6 - - - - - - -
01/04:00am 13.1 SSW 8 14 1018.2 - 2.6 - - - - - - -
01/03:30am 13.2 SSW 8 15 1018.1 - 2.6 - - - - - - -
01/03:00am 12.9 SSW 8 13 1018.0 - 2.6 - - - - - - -
01/02:30am 13.0 SW 8 14 1017.8 - 2.6 - - - - - - -
01/02:00am 13.2 SW 8 12 1017.6 - 2.6 - - - - - - -
01/01:30am 13.1 SSW 9 17 1017.4 - 2.6 - - - - - - -
01/01:00am 13.1 SSW 8 11 1017.2 - 2.6 - - - - - - -
01/12:30am 13.2 SSW 7 12 1017.3 - 2.6 - - - - - - -
01/12:00am 13.2 SSW 8 12 1017.1 - 2.6 - - - - - - -
 
Date/Time
CST
Temp

°C
Wind Pressure Rain
since 9am
mm
Weather Cloud Vis
km
Sea
Height
m
Swell
Dir
 
Speed
knots
Gust
knots
hPa Trend Height
m
Period
s
Dir
31/11:30pm 13.7 SSW 9 13 1017.0 - 2.4 - - - - - - -
31/11:00pm 13.8 SSW 10 15 1017.1 - 2.4 - - - - - - -
31/10:30pm 14.0 SW 9 14 1017.1 - 2.4 - - - - - - -
31/10:00pm 13.8 SW 9 17 1017.0 - 2.4 - - - - - - -
31/09:30pm 14.3 WSW 7 10 1016.5 - 2.4 - - - - - - -
31/09:00pm 14.6 SW 7 12 1016.2 - 2.2 - - - - - - -
31/08:30pm 14.8 SW 7 9 1015.9 - 2.2 - - - - - - -
31/08:00pm 14.9 SW 6 8 1015.5 - 2.2 - - - - - - -
31/07:30pm 14.9 SW 7 9 1015.1 - 2.2 - - - - - - -
31/07:00pm 14.8 SSW 7 10 1014.6 - 2.2 - - - - - - -
31/06:30pm 14.8 SSW 6 8 1014.3 - 2.2 - - - - - - -
31/06:00pm 14.9 SSW 5 8 1014.0 - 2.2 - - - - - - -
31/05:30pm 15.2 S 6 10 1013.7 - 2.0 - - - - - - -
31/05:00pm 15.4 S 7 10 1013.6 - 2.0 - - - - - - -
31/04:30pm 15.3 S 9 14 1013.1 - 2.0 Rain Cloudy 5 - - - -
31/04:00pm 15.6 S 9 13 1013.4 - 2.0 - - - - - - -
31/03:30pm 15.9 SW 9 16 1014.0 - 1.6 - - - - - - -
31/03:00pm 16.3 SSE 7 11 1012.2 - 0.2 - - - - - - -
31/02:30pm 17.7 SSE 8 10 1012.3 - 0.0 - - - - - - -
31/02:00pm 20.2 SSE 8 13 1012.1 - 0.0 - - - - - - -

Other Formats:

Comma delimited format used in spreadsheet applications
http://www.bom.gov.au/fwo/IDS60701/IDS60701.94647.axf

JavaScript Object Notation format (JSON) in row-major order
http://www.bom.gov.au/fwo/IDS60701/IDS60701.94647.json